Time;durP1;ratioP1;P1;durP2;ratioP2;P2;SDS_P1;SDS_P2;PMS_P1;PMS_P2;Temp;Humidity;BMP_temperature;BMP_pressure;BME280_temperature;BME280_humidity;BME280_pressure;Samples;Min_cycle;Max_cycle;Signal;HPM_P1;HPM_P2
2022/04/24 00:00:09;;;;;;;5.05;2.80;;;;;;;16.21;38.65;100136.84;5136672;27;20074;-64
2022/04/24 00:02:36;;;;;;;2.88;2.22;;;;;;;16.21;38.65;100134.13;5144290;27;20106;-64
2022/04/24 00:05:05;;;;;;;3.65;2.80;;;;;;;16.21;38.54;100133.31;5146176;27;20051;-64
2022/04/24 00:07:33;;;;;;;3.33;2.80;;;;;;;16.20;38.74;100137.94;5134861;27;20119;-64
2022/04/24 00:10:03;;;;;;;4.65;2.75;;;;;;;16.18;38.67;100128.44;5145746;27;20051;-64
2022/04/24 00:12:30;;;;;;;3.25;2.55;;;;;;;16.17;39.10;100127.63;5142658;27;20055;-64
2022/04/24 00:14:58;;;;;;;4.55;2.60;;;;;;;16.16;39.04;100131.44;5145270;27;20079;-64
2022/04/24 00:17:26;;;;;;;10.50;2.92;;;;;;;16.14;38.94;100130.91;5133629;27;20138;-64
2022/04/24 00:19:53;;;;;;;3.75;2.75;;;;;;;16.11;38.64;100134.16;5145689;27;20071;-64
2022/04/24 00:22:21;;;;;;;3.92;2.70;;;;;;;16.10;38.70;100127.13;5145553;27;20071;-64
2022/04/24 00:24:49;;;;;;;3.72;2.58;;;;;;;16.09;38.98;100128.22;5140305;27;20580;-64
2022/04/24 00:27:18;;;;;;;5.20;2.88;;;;;;;16.08;38.75;100123.88;5145032;27;20051;-64
2022/04/24 00:29:45;;;;;;;3.97;2.45;;;;;;;16.08;39.22;100118.44;5140768;27;20066;-64
2022/04/24 00:32:13;;;;;;;4.32;2.88;;;;;;;16.06;38.90;100112.50;5140267;27;20079;-65
2022/04/24 00:34:41;;;;;;;3.63;2.88;;;;;;;16.05;39.25;100112.78;5139899;27;20073;-64
2022/04/24 00:37:10;;;;;;;3.80;2.70;;;;;;;16.05;39.16;100120.91;5145238;27;20134;-64
2022/04/24 00:39:37;;;;;;;4.25;2.80;;;;;;;16.01;38.88;100112.50;5144719;27;20058;-64
2022/04/24 00:42:10;;;;;;;4.35;3.13;;;;;;;16.00;39.05;100113.59;5137763;27;20075;-64
2022/04/24 00:44:39;;;;;;;3.80;2.70;;;;;;;16.00;38.83;100116.31;5141227;27;20073;-64
2022/04/24 00:47:12;;;;;;;6.78;2.80;;;;;;;15.97;39.07;100111.44;5142927;27;20050;-64
2022/04/24 00:49:41;;;;;;;3.80;2.75;;;;;;;15.94;38.80;100109.28;5143198;27;20061;-64
2022/04/24 00:52:09;;;;;;;4.60;2.95;;;;;;;15.90;39.28;100100.88;5144821;27;20054;-64
2022/04/24 00:54:38;;;;;;;3.35;2.60;;;;;;;15.92;39.06;100117.69;5144793;27;20067;-64
2022/04/24 00:57:07;;;;;;;4.28;2.80;;;;;;;15.90;38.95;100114.44;5134044;27;20044;-64
2022/04/24 00:59:35;;;;;;;4.18;2.90;;;;;;;15.89;39.19;100115.53;5131097;27;20067;-64
2022/04/24 01:02:05;;;;;;;3.78;2.42;;;;;;;15.86;39.10;100109.84;5141873;27;20083;-64
2022/04/24 01:04:34;;;;;;;4.00;2.80;;;;;;;15.87;39.55;100120.41;5131090;27;20050;-64
2022/04/24 01:07:03;;;;;;;4.13;2.55;;;;;;;15.85;39.20;100113.63;5144355;27;20043;-64
2022/04/24 01:09:33;;;;;;;3.53;2.47;;;;;;;15.82;39.26;100115.00;5144197;27;20130;-64
2022/04/24 01:12:02;;;;;;;3.80;2.50;;;;;;;15.80;39.59;100110.94;5139947;27;20074;-64
2022/04/24 01:14:31;;;;;;;3.03;2.60;;;;;;;15.79;39.60;100110.13;5144023;27;20107;-64
2022/04/24 01:16:59;;;;;;;6.05;2.50;;;;;;;15.79;39.64;100112.03;5143664;27;20081;-64
2022/04/24 01:19:29;;;;;;;4.15;2.70;;;;;;;15.77;39.53;100114.19;5137085;27;20071;-64
2022/04/24 01:21:59;;;;;;;4.72;2.90;;;;;;;15.75;39.73;100116.38;5141114;27;20075;-65
2022/04/24 01:24:29;;;;;;;4.35;3.15;;;;;;;15.73;39.51;100108.50;5144208;27;20555;-64
2022/04/24 01:26:57;;;;;;;3.95;2.95;;;;;;;15.72;39.82;100116.91;5143826;27;20093;-65
2022/04/24 01:29:25;;;;;;;3.53;2.78;;;;;;;15.70;39.58;100119.09;5141706;27;20086;-64
2022/04/24 01:31:53;;;;;;;3.35;2.60;;;;;;;15.68;39.76;100122.06;5138990;27;20127;-65
2022/04/24 01:34:21;;;;;;;6.22;2.92;;;;;;;15.66;39.65;100121.53;5135909;27;20047;-65
2022/04/24 01:36:49;;;;;;;3.90;3.00;;;;;;;15.63;39.72;100116.66;5138707;27;20075;-65
2022/04/24 01:39:18;;;;;;;4.53;3.30;;;;;;;15.61;39.92;100121.53;5143556;27;20078;-65
2022/04/24 01:41:46;;;;;;;3.38;2.75;;;;;;;15.58;39.88;100120.22;5143588;27;20075;-64
2022/04/24 01:44:14;;;;;;;5.13;3.15;;;;;;;15.54;39.74;100107.44;5143542;27;20135;-65
2022/04/24 01:46:42;;;;;;;3.63;2.92;;;;;;;15.57;40.09;100120.47;5133036;27;20070;-64
2022/04/24 01:49:10;;;;;;;4.10;3.20;;;;;;;15.55;40.00;100115.31;5143902;27;20067;-64
2022/04/24 01:51:38;;;;;;;4.80;3.30;;;;;;;15.52;40.05;100117.75;5143801;27;20359;-64
2022/04/24 01:54:06;;;;;;;3.88;3.05;;;;;;;15.52;40.23;100110.44;5133683;27;20079;-65
2022/04/24 01:56:35;;;;;;;4.45;3.15;;;;;;;15.50;40.19;100115.31;5143783;27;20071;-65
2022/04/24 01:59:03;;;;;;;4.18;3.22;;;;;;;15.48;39.97;100114.78;5130105;27;20079;-65
2022/04/24 02:01:30;;;;;;;4.47;3.20;;;;;;;15.46;40.25;100119.66;5137477;27;20111;-65
2022/04/24 02:03:58;;;;;;;4.80;3.22;;;;;;;15.44;40.08;100121.00;5138672;27;20483;-65
2022/04/24 02:06:26;;;;;;;5.38;3.50;;;;;;;15.43;40.22;100124.78;5143533;27;20051;-65
2022/04/24 02:08:54;;;;;;;5.53;3.42;;;;;;;15.40;40.21;100120.72;5137874;27;20054;-64
2022/04/24 02:11:21;;;;;;;4.90;2.97;;;;;;;15.40;40.33;100122.63;5143616;28;20066;-64
2022/04/24 02:13:50;;;;;;;4.32;3.28;;;;;;;15.39;40.16;100119.09;5133511;27;20044;-64
2022/04/24 02:16:18;;;;;;;4.72;3.28;;;;;;;15.39;40.23;100121.00;5143033;28;20070;-64
2022/04/24 02:18:46;;;;;;;4.50;3.33;;;;;;;15.34;40.39;100108.28;5143535;27;20057;-64
2022/04/24 02:21:14;;;;;;;6.82;3.20;;;;;;;15.37;40.36;100115.84;5140943;28;20479;-63
2022/04/24 02:23:42;;;;;;;5.53;3.75;;;;;;;15.35;40.22;100115.31;5141479;28;20051;-64
2022/04/24 02:26:09;;;;;;;4.50;3.08;;;;;;;15.34;40.21;100115.59;5143468;28;20073;-64
2022/04/24 02:28:37;;;;;;;5.28;3.33;;;;;;;15.33;40.40;100116.66;5142080;28;20075;-64
2022/04/24 02:31:06;;;;;;;4.53;3.50;;;;;;;15.31;40.51;100122.34;5139226;27;20051;-65
2022/04/24 02:33:34;;;;;;;4.20;3.10;;;;;;;15.29;40.58;100113.69;5143412;28;20043;-64
2022/04/24 02:36:02;;;;;;;4.78;3.45;;;;;;;15.28;40.65;100112.06;5143344;28;20089;-64
2022/04/24 02:38:30;;;;;;;6.25;3.50;;;;;;;15.23;40.47;100114.78;5139548;28;20079;-64
2022/04/24 02:40:58;;;;;;;5.40;3.53;;;;;;;15.25;40.71;100126.16;5136382;28;20081;-64
2022/04/24 02:43:26;;;;;;;5.25;3.78;;;;;;;15.24;40.15;100124.53;5136274;28;20078;-64
2022/04/24 02:45:54;;;;;;;5.70;3.40;;;;;;;15.20;40.93;100126.16;5140020;27;20086;-64
2022/04/24 02:48:26;;;;;;;5.07;3.33;;;;;;;15.18;40.75;100129.13;5146047;27;20047;-64
2022/04/24 02:50:54;;;;;;;7.05;3.60;;;;;;;15.17;40.54;100126.69;5147555;27;20043;-64
2022/04/24 02:53:22;;;;;;;4.68;3.40;;;;;;;15.14;40.85;100116.41;5147370;27;20174;-64
2022/04/24 02:55:49;;;;;;;4.97;3.70;;;;;;;15.12;40.82;100108.53;5133809;27;20071;-64
2022/04/24 02:58:19;;;;;;;4.68;3.70;;;;;;;15.12;40.86;100107.72;5138397;27;20079;-64
2022/04/24 03:00:50;;;;;;;6.15;3.88;;;;;;;15.10;40.85;100120.72;5142887;27;20439;-64
2022/04/24 03:03:19;;;;;;;5.85;4.25;;;;;;;15.06;40.74;100117.75;5139763;27;20051;-64
2022/04/24 03:05:49;;;;;;;4.60;3.55;;;;;;;15.05;40.67;100120.72;5143815;27;20460;-63
2022/04/24 03:08:18;;;;;;;5.07;3.75;;;;;;;15.00;40.67;100107.19;5146280;27;20078;-64
2022/04/24 03:10:47;;;;;;;6.13;3.40;;;;;;;15.01;40.70;100119.63;5147084;27;20103;-64
2022/04/24 03:13:14;;;;;;;4.93;3.72;;;;;;;14.98;41.02;100121.78;5134459;27;20075;-64
2022/04/24 03:15:42;;;;;;;5.13;3.90;;;;;;;14.98;40.86;100126.38;5133015;27;20066;-64
2022/04/24 03:18:10;;;;;;;5.75;3.78;;;;;;;14.95;40.91;100122.31;5146172;27;20043;-64
2022/04/24 03:20:37;;;;;;;4.18;3.72;;;;;;;14.94;41.08;100128.81;5142021;27;20559;-64
2022/04/24 03:23:07;;;;;;;5.13;3.83;;;;;;;14.94;40.92;100123.41;5139148;27;20071;-64
2022/04/24 03:25:34;;;;;;;5.35;4.00;;;;;;;14.93;40.77;100124.50;5146814;27;20039;-64
2022/04/24 03:28:02;;;;;;;6.43;3.70;;;;;;;14.92;41.14;100125.56;5145580;27;20077;-64
2022/04/24 03:30:30;;;;;;;5.65;4.15;;;;;;;14.91;40.93;100123.94;5138187;27;20094;-64
2022/04/24 03:32:58;;;;;;;5.82;4.22;;;;;;;14.91;40.94;100128.53;5145826;27;20054;-64
2022/04/24 03:35:26;;;;;;;5.22;3.60;;;;;;;14.88;41.28;100127.19;5146558;27;20047;-63
2022/04/24 03:37:54;;;;;;;4.80;4.07;;;;;;;14.87;41.03;100130.16;5139219;27;20048;-63
2022/04/24 03:40:23;;;;;;;4.50;3.50;;;;;;;14.86;40.99;100128.53;5146737;27;20101;-64
2022/04/24 03:42:51;;;;;;;4.53;3.88;;;;;;;14.86;41.04;100136.66;5145082;27;20115;-64
2022/04/24 03:45:18;;;;;;;5.88;3.90;;;;;;;14.83;41.16;100126.34;5146601;27;20050;-64
2022/04/24 03:47:47;;;;;;;5.18;3.60;;;;;;;14.83;41.05;100129.88;5132814;27;20119;-64
2022/04/24 03:50:15;;;;;;;5.90;4.28;;;;;;;14.81;41.39;100123.91;5146527;27;20054;-64
2022/04/24 03:52:43;;;;;;;5.90;3.95;;;;;;;14.81;41.30;100136.63;5145841;27;20075;-63
2022/04/24 03:55:11;;;;;;;6.68;4.63;;;;;;;14.78;41.40;100135.28;5144221;27;20055;-65
2022/04/24 03:57:40;;;;;;;6.95;4.45;;;;;;;14.78;41.24;100129.06;5138641;27;20151;-65
2022/04/24 04:00:08;;;;;;;5.63;4.25;;;;;;;14.78;41.10;100134.47;5136111;27;20123;-64
2022/04/24 04:02:43;;;;;;;9.50;3.88;;;;;;;14.75;41.26;100127.69;5142417;27;20047;-64
2022/04/24 04:05:11;;;;;;;5.00;3.85;;;;;;;14.73;41.30;100131.75;5146127;27;20044;-64
2022/04/24 04:07:39;;;;;;;4.70;3.90;;;;;;;14.70;41.50;100130.38;5145285;27;20073;-64
2022/04/24 04:10:07;;;;;;;6.68;4.40;;;;;;;14.70;41.35;100124.97;5140066;27;20164;-65
2022/04/24 04:12:35;;;;;;;5.60;4.32;;;;;;;14.67;41.30;100122.00;5144436;27;20058;-65
2022/04/24 04:15:05;;;;;;;5.95;4.05;;;;;;;14.68;41.44;100129.84;5138389;27;20380;-65
2022/04/24 04:17:33;;;;;;;5.90;4.30;;;;;;;14.66;41.40;100134.69;5144460;27;20075;-65
2022/04/24 04:20:01;;;;;;;6.28;4.47;;;;;;;14.62;41.88;100129.00;5144570;27;20077;-65
2022/04/24 04:22:29;;;;;;;6.20;4.90;;;;;;;14.60;41.95;100144.69;5140464;27;20082;-65
2022/04/24 04:24:56;;;;;;;5.85;4.45;;;;;;;14.57;42.13;100144.41;5145467;27;20070;-65
2022/04/24 04:27:26;;;;;;;5.28;4.63;;;;;;;14.56;41.89;100137.38;5144569;27;20067;-65
2022/04/24 04:29:54;;;;;;;6.95;5.40;;;;;;;14.52;42.21;100147.09;5133847;27;20044;-65
2022/04/24 04:32:24;;;;;;;5.03;4.10;;;;;;;14.49;42.37;100153.03;5145025;27;20065;-64
2022/04/24 04:34:51;;;;;;;7.72;4.45;;;;;;;14.46;41.96;100146.25;5141340;27;20094;-64
2022/04/24 04:37:19;;;;;;;6.45;4.90;;;;;;;14.46;42.10;100148.16;5144660;27;20131;-65
2022/04/24 04:39:47;;;;;;;6.13;4.90;;;;;;;14.43;42.15;100143.28;5139872;27;20097;-64
2022/04/24 04:42:14;;;;;;;7.63;4.60;;;;;;;14.40;42.56;100141.06;5144742;27;20079;-64
2022/04/24 04:44:43;;;;;;;7.03;5.07;;;;;;;14.37;42.65;100139.69;5144857;27;20058;-64
2022/04/24 04:47:10;;;;;;;7.20;4.53;;;;;;;14.37;42.71;100153.22;5134568;27;20043;-65
2022/04/24 04:49:39;;;;;;;5.95;4.40;;;;;;;14.37;42.36;100157.81;5142261;27;20077;-64
2022/04/24 04:52:08;;;;;;;6.35;4.78;;;;;;;14.34;42.48;100154.56;5144914;27;20136;-64
2022/04/24 04:54:35;;;;;;;6.70;4.70;;;;;;;14.34;42.66;100169.97;5133028;27;20078;-64
2022/04/24 04:57:04;;;;;;;7.28;4.75;;;;;;;14.32;42.43;100164.81;5144278;27;20093;-65
2022/04/24 04:59:32;;;;;;;6.72;4.43;;;;;;;14.31;42.65;100170.50;5130593;27;20094;-65
2022/04/24 05:02:00;;;;;;;6.47;5.05;;;;;;;14.28;43.02;100173.72;5144148;27;20130;-65
2022/04/24 05:04:33;;;;;;;6.82;4.78;;;;;;;14.26;43.10;100168.56;5141518;27;20072;-64
2022/04/24 05:07:02;;;;;;;6.20;4.50;;;;;;;14.26;42.86;100173.16;5144450;27;20074;-65
2022/04/24 05:09:30;;;;;;;6.68;5.05;;;;;;;14.25;43.16;100182.34;5143672;27;20428;-65
2022/04/24 05:11:57;;;;;;;5.82;4.40;;;;;;;14.22;43.09;100178.28;5137683;27;20081;-65
2022/04/24 05:14:25;;;;;;;8.68;4.65;;;;;;;14.21;42.77;100182.06;5144074;27;20058;-65
2022/04/24 05:16:53;;;;;;;8.20;4.65;;;;;;;14.21;42.89;100186.66;5143841;27;20085;-65
2022/04/24 05:19:21;;;;;;;5.65;4.20;;;;;;;14.19;42.83;100186.91;5141517;27;20047;-65
2022/04/24 05:21:48;;;;;;;5.65;4.45;;;;;;;14.18;42.84;100188.00;5141033;27;20123;-65
2022/04/24 05:24:17;;;;;;;7.88;5.20;;;;;;;14.15;43.26;100191.22;5133587;27;20074;-65
2022/04/24 05:26:45;;;;;;;10.55;5.55;;;;;;;14.14;43.47;100195.00;5141257;27;20107;-66
2022/04/24 05:29:14;;;;;;;6.72;5.10;;;;;;;14.14;43.49;100195.00;5132877;27;20058;-65
2022/04/24 05:31:42;;;;;;;6.63;4.68;;;;;;;14.13;43.17;100195.25;5137654;27;20051;-66
2022/04/24 05:34:09;;;;;;;5.40;4.00;;;;;;;14.12;43.28;100204.44;5134410;27;20043;-65
2022/04/24 05:36:37;;;;;;;8.10;5.22;;;;;;;14.14;43.03;100191.47;5133981;27;20480;-64
2022/04/24 05:39:05;;;;;;;7.05;4.40;;;;;;;14.12;43.10;100205.25;5143442;27;20081;-64
2022/04/24 05:41:34;;;;;;;6.13;4.97;;;;;;;13.99;43.63;100181.38;5139015;27;20051;-65
2022/04/24 05:44:02;;;;;;;5.95;4.50;;;;;;;14.09;43.44;100197.66;5143229;27;20080;-65
2022/04/24 05:46:30;;;;;;;8.38;5.07;;;;;;;14.08;43.29;100200.63;5142348;27;20440;-65
2022/04/24 05:49:00;;;;;;;7.60;4.90;;;;;;;14.09;43.76;100203.06;5143605;27;20051;-65
2022/04/24 05:51:28;;;;;;;7.13;4.30;;;;;;;14.10;43.76;100209.28;5143939;27;20169;-65
2022/04/24 05:53:56;;;;;;;5.63;4.25;;;;;;;14.08;43.78;100209.53;5135992;27;20067;-63
2022/04/24 05:56:24;;;;;;;5.30;4.40;;;;;;;14.10;43.62;100214.69;5143653;27;20051;-63
2022/04/24 05:58:53;;;;;;;5.35;4.45;;;;;;;14.10;43.19;100218.22;5130167;27;20071;-64
2022/04/24 06:01:20;;;;;;;6.25;4.55;;;;;;;14.12;43.48;100213.34;5130345;27;20051;-64
2022/04/24 06:03:48;;;;;;;6.50;4.40;;;;;;;14.13;43.68;100219.56;5137696;27;20061;-63
2022/04/24 06:06:16;;;;;;;6.40;4.40;;;;;;;14.16;43.32;100224.47;5142437;27;20043;-63
2022/04/24 06:08:44;;;;;;;5.40;4.07;;;;;;;14.20;43.48;100218.28;5137006;27;20054;-64
2022/04/24 06:11:12;;;;;;;7.65;4.82;;;;;;;14.22;43.20;100223.41;5140527;27;20085;-64
2022/04/24 06:13:40;;;;;;;5.40;4.35;;;;;;;14.23;43.23;100223.16;5142488;27;20120;-64
2022/04/24 06:16:09;;;;;;;5.75;4.43;;;;;;;14.26;43.27;100224.53;5143080;28;20054;-64
2022/04/24 06:18:38;;;;;;;4.57;3.53;;;;;;;14.28;43.67;100223.19;5131079;27;20147;-64
2022/04/24 06:21:06;;;;;;;4.32;3.70;;;;;;;14.29;43.64;100213.19;5139062;27;20047;-64
2022/04/24 06:23:34;;;;;;;5.25;3.40;;;;;;;14.30;43.39;100220.22;5147725;27;20082;-66
2022/04/24 06:26:01;;;;;;;4.45;3.50;;;;;;;14.31;43.12;100221.84;5141071;27;20073;-65
2022/04/24 06:28:29;;;;;;;7.30;4.03;;;;;;;14.31;43.17;100225.38;5143573;27;20077;-64
2022/04/24 06:30:57;;;;;;;6.13;4.07;;;;;;;14.34;43.57;100222.13;5143882;27;20047;-64
2022/04/24 06:33:27;;;;;;;4.60;3.40;;;;;;;14.37;43.21;100222.69;5144998;27;20105;-64
2022/04/24 06:35:55;;;;;;;4.75;3.63;;;;;;;14.40;43.35;100227.56;5138898;27;20427;-64
2022/04/24 06:38:24;;;;;;;7.82;3.40;;;;;;;14.40;43.41;100228.38;5146653;27;20043;-64
2022/04/24 06:40:51;;;;;;;5.55;4.00;;;;;;;14.42;43.39;100223.56;5143147;27;20058;-64
2022/04/24 06:43:19;;;;;;;5.20;3.63;;;;;;;14.43;43.49;100227.91;5145422;27;20054;-64
2022/04/24 06:45:47;;;;;;;8.35;3.83;;;;;;;14.46;43.06;100240.06;5147625;27;20437;-64
2022/04/24 06:48:16;;;;;;;7.65;4.45;;;;;;;14.48;43.00;100237.94;5146472;27;20098;-64
2022/04/24 06:50:47;;;;;;;4.97;3.70;;;;;;;14.47;43.53;100237.09;5142981;27;20044;-65
2022/04/24 06:53:18;;;;;;;5.57;4.05;;;;;;;14.51;43.46;100238.22;5146909;27;20115;-64
2022/04/24 06:55:47;;;;;;;6.82;4.03;;;;;;;14.55;43.20;100235.81;5147389;27;20042;-65
2022/04/24 06:58:16;;;;;;;4.75;3.67;;;;;;;14.56;43.30;100243.66;5135860;27;20082;-65
2022/04/24 07:00:45;;;;;;;6.07;3.83;;;;;;;14.58;43.32;100235.28;5142337;27;20043;-65
2022/04/24 07:03:33;;;;;;;5.07;3.53;;;;;;;14.59;43.04;100240.41;5147151;27;20376;-65
2022/04/24 07:06:02;;;;;;;6.25;3.80;;;;;;;14.61;43.10;100240.16;5144968;27;20055;-64
2022/04/24 07:08:30;;;;;;;7.05;3.63;;;;;;;14.62;43.16;100231.78;5138108;27;20047;-65
2022/04/24 07:10:58;;;;;;;4.85;3.83;;;;;;;14.64;43.25;100239.63;5137917;27;20100;-64
2022/04/24 07:13:26;;;;;;;6.70;3.97;;;;;;;14.65;43.25;100244.78;5146035;27;20063;-64
2022/04/24 07:15:54;;;;;;;5.00;3.80;;;;;;;14.66;43.14;100242.88;5146967;27;20171;-64
2022/04/24 07:18:22;;;;;;;7.85;4.10;;;;;;;14.63;43.13;100240.72;5145223;27;20043;-64
2022/04/24 07:20:50;;;;;;;6.75;3.40;;;;;;;14.68;43.31;100250.75;5130962;27;20071;-64
2022/04/24 07:23:19;;;;;;;4.57;3.28;;;;;;;14.70;43.30;100245.88;5140676;27;20043;-64
2022/04/24 07:25:48;;;;;;;5.85;3.38;;;;;;;14.70;43.28;100246.69;5146841;27;20077;-64
2022/04/24 07:28:18;;;;;;;4.65;3.20;;;;;;;14.72;42.97;100247.25;5143132;27;20062;-64
2022/04/24 07:30:47;;;;;;;5.45;3.90;;;;;;;14.61;43.31;100232.84;5142562;27;20070;-64
2022/04/24 07:33:15;;;;;;;5.90;3.80;;;;;;;14.74;43.21;100253.19;5142752;27;20107;-64
2022/04/24 07:35:43;;;;;;;4.88;3.67;;;;;;;14.75;42.85;100254.00;5146655;27;20047;-65
2022/04/24 07:38:11;;;;;;;7.68;3.60;;;;;;;14.75;43.07;100245.91;5131819;27;20062;-64
2022/04/24 07:40:40;;;;;;;7.43;4.03;;;;;;;14.74;43.16;100246.97;5146510;27;20051;-63
2022/04/24 07:43:09;;;;;;;6.00;3.78;;;;;;;14.77;42.67;100249.16;5145547;27;20039;-63
2022/04/24 07:45:39;;;;;;;6.13;4.07;;;;;;;14.76;42.78;100250.22;5146636;27;20058;-63
2022/04/24 07:48:08;;;;;;;5.45;3.50;;;;;;;14.75;42.97;100245.91;5133263;27;20077;-63
2022/04/24 07:50:37;;;;;;;8.23;3.90;;;;;;;14.76;42.79;100258.34;5146479;27;20082;-63
2022/04/24 07:53:06;;;;;;;5.50;3.83;;;;;;;14.76;43.30;100258.34;5139009;27;20043;-63
2022/04/24 07:55:34;;;;;;;7.75;3.72;;;;;;;14.75;42.88;100249.41;5139113;27;20074;-63
2022/04/24 07:58:04;;;;;;;4.65;3.42;;;;;;;14.75;42.86;100248.59;5137548;27;20151;-63
2022/04/24 08:00:33;;;;;;;5.85;3.83;;;;;;;14.76;42.97;100258.34;5139707;27;20047;-63
2022/04/24 08:03:02;;;;;;;6.45;3.90;;;;;;;14.77;43.29;100247.25;5145436;27;20082;-63
2022/04/24 08:05:33;;;;;;;5.40;3.97;;;;;;;14.77;43.16;100258.09;5144665;27;20051;-64
2022/04/24 08:08:03;;;;;;;8.07;4.20;;;;;;;14.77;43.37;100260.78;5145016;27;20051;-63
2022/04/24 08:10:32;;;;;;;5.85;3.65;;;;;;;14.77;42.86;100257.28;5144805;27;20395;-63
2022/04/24 08:13:03;;;;;;;5.53;4.18;;;;;;;14.78;43.28;100259.72;5144788;27;20567;-63
2022/04/24 08:15:33;;;;;;;5.63;4.13;;;;;;;14.81;42.99;100258.38;5145559;27;20049;-63
2022/04/24 08:18:02;;;;;;;5.70;3.90;;;;;;;14.82;42.94;100265.41;5143457;27;20042;-63
2022/04/24 08:20:30;;;;;;;5.65;4.00;;;;;;;14.83;43.32;100262.44;5141042;27;20062;-63
2022/04/24 08:22:59;;;;;;;6.80;4.13;;;;;;;14.85;43.02;100262.19;5145445;27;20086;-63
2022/04/24 08:25:28;;;;;;;5.63;4.25;;;;;;;14.86;43.45;100258.41;5145535;27;20079;-63
2022/04/24 08:27:57;;;;;;;7.15;3.50;;;;;;;14.89;42.84;100274.09;5144461;27;20099;-64
2022/04/24 08:30:25;;;;;;;9.35;4.55;;;;;;;14.85;43.16;100273.81;5131293;27;20070;-64
2022/04/24 08:32:54;;;;;;;7.03;4.40;;;;;;;14.90;42.81;100267.59;5144490;27;20339;-64
2022/04/24 08:35:27;;;;;;;8.48;3.75;;;;;;;14.91;42.56;100266.53;5145348;27;20095;-64
2022/04/24 08:37:55;;;;;;;7.75;3.78;;;;;;;14.91;42.64;100270.03;5143889;27;20568;-64
2022/04/24 08:40:24;;;;;;;5.53;3.85;;;;;;;14.93;43.00;100267.09;5133307;27;20054;-64
2022/04/24 08:42:52;;;;;;;5.32;3.78;;;;;;;14.94;43.14;100271.41;5139364;27;20048;-64
2022/04/24 08:45:25;;;;;;;5.45;4.13;;;;;;;14.96;42.98;100269.25;5144237;27;20047;-64
2022/04/24 08:47:56;;;;;;;6.60;4.40;;;;;;;14.96;43.04;100269.25;5144163;27;20075;-65
2022/04/24 08:50:27;;;;;;;5.22;3.97;;;;;;;14.97;43.11;100271.69;5135314;27;20086;-64
2022/04/24 08:52:56;;;;;;;6.03;3.75;;;;;;;15.00;42.95;100272.25;5142304;27;20060;-63
2022/04/24 08:55:26;;;;;;;5.35;3.97;;;;;;;15.02;42.76;100270.09;5143698;27;20058;-64
2022/04/24 08:57:54;;;;;;;8.77;4.78;;;;;;;15.02;42.81;100272.78;5139250;27;20450;-64
2022/04/24 09:00:22;;;;;;;5.80;4.03;;;;;;;15.02;42.81;100278.22;5137090;27;20058;-64
2022/04/24 09:02:51;;;;;;;5.97;4.30;;;;;;;15.03;42.56;100282.53;5141425;27;20050;-64
2022/04/24 09:05:21;;;;;;;5.80;4.47;;;;;;;14.95;42.68;100260.31;5137781;27;20080;-65
2022/04/24 09:07:52;;;;;;;7.72;4.28;;;;;;;14.97;42.79;100262.78;5135958;27;20492;-64
2022/04/24 09:10:51;;;;;;;7.03;4.35;;;;;;;15.05;42.93;100272.25;5141836;27;20489;-64
2022/04/24 09:13:30;;;;;;;8.18;4.47;;;;;;;15.06;42.43;100276.59;5135941;27;20051;-64
2022/04/24 09:15:59;;;;;;;12.57;4.75;;;;;;;15.07;42.54;100275.53;5144216;27;20107;-64
2022/04/24 09:18:39;;;;;;;8.20;4.65;;;;;;;15.09;43.01;100276.06;5138400;27;20112;-64
2022/04/24 09:21:11;;;;;;;6.80;4.32;;;;;;;15.10;42.79;100267.69;5139748;27;20130;-64
2022/04/24 09:23:42;;;;;;;6.60;4.20;;;;;;;15.12;42.79;100278.25;5141790;27;20070;-64
2022/04/24 09:26:14;;;;;;;6.13;4.10;;;;;;;15.11;42.66;100265.78;5144279;27;20046;-64
2022/04/24 09:28:42;;;;;;;6.90;4.18;;;;;;;15.09;42.56;100265.25;5141054;27;20075;-63
2022/04/24 09:31:10;;;;;;;7.78;5.57;;;;;;;15.09;41.91;100273.38;5139776;27;20127;-64
2022/04/24 09:33:40;;;;;;;5.97;4.82;;;;;;;15.08;42.51;100272.53;5136623;27;20044;-64
2022/04/24 09:36:10;;;;;;;7.05;4.72;;;;;;;15.08;42.32;100279.84;5136880;27;20499;-64
2022/04/24 09:38:43;;;;;;;5.93;4.80;;;;;;;15.10;42.90;100275.00;5141475;27;20099;-64
2022/04/24 09:41:18;;;;;;;8.57;5.38;;;;;;;15.12;42.47;100278.25;5143856;27;20115;-64
2022/04/24 09:43:46;;;;;;;8.27;4.50;;;;;;;15.08;42.50;100264.44;5141354;27;20118;-64
2022/04/24 09:46:14;;;;;;;6.82;4.32;;;;;;;15.19;42.37;100276.09;5139441;27;20078;-64
2022/04/24 09:48:51;;;;;;;6.75;4.55;;;;;;;15.23;42.87;100271.78;5143591;27;20059;-64
2022/04/24 09:51:21;;;;;;;7.55;4.50;;;;;;;15.28;42.80;100283.44;5141248;27;20050;-64
2022/04/24 09:53:50;;;;;;;5.43;3.90;;;;;;;15.29;42.25;100270.72;5133303;27;20075;-64
2022/04/24 09:56:19;;;;;;;5.70;4.20;;;;;;;15.34;42.77;100276.16;5141843;27;20081;-64
2022/04/24 09:58:49;;;;;;;6.13;4.40;;;;;;;15.35;42.35;100268.84;5130810;27;20055;-63
2022/04/24 10:01:18;;;;;;;6.82;4.88;;;;;;;15.38;42.40;100266.41;5136582;27;20071;-64
2022/04/24 10:03:46;;;;;;;9.48;4.28;;;;;;;15.37;42.17;100269.38;5136382;27;20134;-64
2022/04/24 10:06:15;;;;;;;7.63;4.40;;;;;;;15.45;42.53;100274.28;5143676;27;20090;-63
2022/04/24 10:08:45;;;;;;;8.52;4.93;;;;;;;15.51;42.89;100267.78;5142830;27;20055;-64
2022/04/24 10:11:13;;;;;;;8.05;4.07;;;;;;;15.55;42.60;100269.69;5138387;27;20093;-64
2022/04/24 10:13:46;;;;;;;5.75;4.32;;;;;;;15.58;42.63;100271.88;5142588;27;20043;-64
2022/04/24 10:16:29;;;;;;;5.32;4.10;;;;;;;15.67;42.38;100274.03;5141030;27;20425;-63
2022/04/24 10:19:09;;;;;;;6.78;3.90;;;;;;;15.70;42.85;100274.31;5142219;27;20051;-63
2022/04/24 10:21:52;;;;;;;5.05;4.30;;;;;;;15.71;41.74;100277.84;5133921;28;20078;-64
2022/04/24 10:24:21;;;;;;;6.63;4.72;;;;;;;15.71;41.92;100275.13;5133386;28;20143;-64
2022/04/24 10:26:54;;;;;;;6.72;4.55;;;;;;;15.71;42.38;100275.13;5143280;28;20047;-64
2022/04/24 10:29:22;;;;;;;7.13;4.57;;;;;;;15.68;42.13;100265.63;5140308;28;20162;-64
2022/04/24 10:31:50;;;;;;;10.38;5.90;;;;;;;15.75;40.74;100282.44;5140996;27;20051;-64
2022/04/24 10:34:19;;;;;;;9.27;4.93;;;;;;;15.75;41.40;100298.69;5135829;28;20056;-64
2022/04/24 10:36:56;;;;;;;6.90;5.03;;;;;;;15.75;41.47;100295.19;5142286;28;20435;-64
2022/04/24 10:39:27;;;;;;;6.90;5.75;;;;;;;15.74;40.41;100286.22;5142402;28;20043;-64
2022/04/24 10:42:07;;;;;;;5.43;4.40;;;;;;;15.75;41.20;100281.63;5143211;28;20051;-64
2022/04/24 10:44:35;;;;;;;9.20;5.65;;;;;;;15.80;41.34;100282.44;5129019;28;20538;-64
2022/04/24 10:47:11;;;;;;;6.57;4.43;;;;;;;15.85;41.43;100278.94;5137484;28;20066;-64
2022/04/24 10:49:39;;;;;;;9.00;4.47;;;;;;;15.91;41.75;100283.28;5141395;28;20127;-65
2022/04/24 10:52:07;;;;;;;6.32;4.43;;;;;;;15.93;41.65;100279.19;5143038;28;20265;-65
2022/04/24 10:54:39;;;;;;;9.60;5.20;;;;;;;16.02;41.24;100278.66;5138053;28;20075;-64
2022/04/24 10:57:18;;;;;;;6.70;3.83;;;;;;;16.07;41.31;100287.59;5136146;28;20047;-64
2022/04/24 10:59:48;;;;;;;10.07;5.00;;;;;;;16.11;40.79;100279.75;5130330;27;20067;-64
2022/04/24 11:02:21;;;;;;;9.45;6.45;;;;;;;16.08;38.47;100288.41;5133662;28;20059;-64
2022/04/24 11:04:58;;;;;;;6.97;5.40;;;;;;;16.03;39.96;100280.28;5143197;28;20078;-64
2022/04/24 11:07:25;;;;;;;12.35;5.55;;;;;;;16.07;40.11;100284.06;5142988;27;20174;-64
2022/04/24 11:10:02;;;;;;;5.40;4.22;;;;;;;16.11;40.55;100268.91;5134076;27;20079;-64
2022/04/24 11:12:31;;;;;;;9.32;4.55;;;;;;;16.16;40.55;100277.84;5145282;27;20348;-64
2022/04/24 11:15:07;;;;;;;6.30;4.28;;;;;;;16.23;41.01;100281.09;5143678;27;20048;-64
2022/04/24 11:17:35;;;;;;;5.85;3.88;;;;;;;16.32;40.93;100275.09;5135211;27;20150;-64
2022/04/24 11:20:08;;;;;;;5.45;3.88;;;;;;;16.38;40.31;100282.16;5146882;27;20075;-64
2022/04/24 11:22:46;;;;;;;8.73;4.45;;;;;;;16.42;39.80;100283.22;5138156;27;20104;-64
2022/04/24 11:25:16;;;;;;;5.57;3.95;;;;;;;16.45;39.75;100274.53;5143738;27;20067;-64
2022/04/24 11:27:44;;;;;;;9.15;4.85;;;;;;;16.45;38.27;100290.81;5145617;27;20070;-64
2022/04/24 11:30:17;;;;;;;6.07;4.28;;;;;;;16.44;39.19;100276.44;5142506;27;20086;-64
2022/04/24 11:32:57;;;;;;;4.82;3.40;;;;;;;16.52;40.23;100277.78;5132997;27;20420;-63